Time;durP1;ratioP1;P1;durP2;ratioP2;P2;SDS_P1;SDS_P2;PMS_P1;PMS_P2;Temp;Humidity;BMP_temperature;BMP_pressure;BME280_temperature;BME280_humidity;BME280_pressure;Samples;Min_cycle;Max_cycle;Signal;HPM_P1;HPM_P2
2022/01/11 00:01:26;;;;;;;146.43;49.25;;;;;;;;;;5034277;28;20029;-67
2022/01/11 00:03:53;;;;;;;139.63;48.78;;;;;;;;;;5034967;28;20025;-67
2022/01/11 00:08:51;;;;;;;157.75;50.00;;;;;;;;;;5036068;28;20101;-67
2022/01/11 00:11:18;;;;;;;158.85;55.35;;;;;;;;;;5035012;28;20037;-68
2022/01/11 00:13:45;;;;;;;158.43;52.38;;;;;;;;;;5036082;28;20025;-69
2022/01/11 00:16:14;;;;;;;157.55;51.53;;;;;;;;;;5036006;28;20051;-68
2022/01/11 00:18:41;;;;;;;165.70;53.33;;;;;;;;;;5035856;28;20025;-68
2022/01/11 00:21:08;;;;;;;157.38;52.35;;;;;;;;;;5035988;28;20028;-67
2022/01/11 00:26:06;;;;;;;170.02;52.58;;;;;;;;;;5035869;28;20377;-67
2022/01/11 00:28:34;;;;;;;150.23;53.15;;;;;;;;;;5036063;28;20049;-67
2022/01/11 00:31:05;;;;;;;168.05;53.95;;;;;;;;;;5035826;28;20087;-67
2022/01/11 00:33:38;;;;;;;167.90;53.97;;;;;;;;;;5035831;28;20029;-67
2022/01/11 00:36:07;;;;;;;176.35;56.60;;;;;;;;;;5035615;28;20334;-67
2022/01/11 00:38:36;;;;;;;161.65;53.85;;;;;;;;;;5035729;28;20079;-67
2022/01/11 00:41:05;;;;;;;153.88;52.33;;;;;;;;;;5035389;28;20037;-67
2022/01/11 00:43:34;;;;;;;159.38;54.38;;;;;;;;;;5035532;28;20166;-67
2022/01/11 00:46:02;;;;;;;157.95;53.70;;;;;;;;;;5035470;28;20021;-67
2022/01/11 00:48:30;;;;;;;160.88;51.92;;;;;;;;;;5035601;28;20017;-68
2022/01/11 00:50:57;;;;;;;180.65;59.08;;;;;;;;;;5035329;28;20068;-66
2022/01/11 00:53:23;;;;;;;151.13;53.20;;;;;;;;;;5035439;28;20109;-67
2022/01/11 00:55:51;;;;;;;174.82;56.70;;;;;;;;;;5035426;28;20384;-67
2022/01/11 00:58:19;;;;;;;155.70;52.63;;;;;;;;;;5035251;28;20075;-68
2022/01/11 01:00:47;;;;;;;171.38;55.08;;;;;;;;;;5034111;28;20113;-67
2022/01/11 01:03:16;;;;;;;165.00;54.40;;;;;;;;;;5035078;28;20021;-67
2022/01/11 01:05:43;;;;;;;157.25;50.58;;;;;;;;;;5035336;28;20022;-66
2022/01/11 01:08:11;;;;;;;162.98;52.78;;;;;;;;;;5035260;28;20018;-67
2022/01/11 01:10:45;;;;;;;159.23;52.45;;;;;;;;;;5035232;28;20224;-66
2022/01/11 01:13:17;;;;;;;169.55;55.47;;;;;;;;;;5037773;28;20048;-66
2022/01/11 01:15:48;;;;;;;170.43;57.53;;;;;;;;;;5039183;28;20404;-67
2022/01/11 01:18:17;;;;;;;163.25;56.25;;;;;;;;;;5037923;28;20045;-67
2022/01/11 01:20:45;;;;;;;146.57;47.03;;;;;;;;;;5039048;28;20103;-68
2022/01/11 01:23:13;;;;;;;173.93;57.42;;;;;;;;;;5037901;28;20028;-68
2022/01/11 01:25:42;;;;;;;161.02;54.28;;;;;;;;;;5038858;28;20024;-68
2022/01/11 01:28:09;;;;;;;161.57;59.58;;;;;;;;;;5037634;28;20184;-68
2022/01/11 01:30:40;;;;;;;166.48;63.95;;;;;;;;;;5038713;28;20025;-66
2022/01/11 01:33:08;;;;;;;156.10;54.97;;;;;;;;;;5038969;28;20053;-67
2022/01/11 01:35:45;;;;;;;146.10;47.95;;;;;;;;;;5038708;28;20102;-68
2022/01/11 01:38:13;;;;;;;181.07;68.45;;;;;;;;;;5038615;28;20037;-67
2022/01/11 01:40:45;;;;;;;184.77;67.43;;;;;;;;;;5037563;28;20318;-67
2022/01/11 01:43:13;;;;;;;181.52;63.35;;;;;;;;;;5038494;28;20105;-68
2022/01/11 01:45:43;;;;;;;171.32;59.35;;;;;;;;;;5037521;28;20026;-67
2022/01/11 01:48:12;;;;;;;159.57;51.63;;;;;;;;;;5037616;28;20080;-67
2022/01/11 01:50:38;;;;;;;178.85;59.35;;;;;;;;;;5038392;28;20474;-67
2022/01/11 01:53:07;;;;;;;167.05;54.20;;;;;;;;;;5038518;28;20108;-68
2022/01/11 01:55:37;;;;;;;158.20;56.00;;;;;;;;;;5036879;28;20034;-68
2022/01/11 01:58:04;;;;;;;172.32;59.60;;;;;;;;;;5036790;28;20030;-69
2022/01/11 02:00:39;;;;;;;212.32;82.53;;;;;;;;;;5037907;28;20079;-67
2022/01/11 02:03:11;;;;;;;174.90;59.05;;;;;;;;;;5037929;28;20024;-65
2022/01/11 02:05:39;;;;;;;152.45;54.25;;;;;;;;;;5037920;28;20017;-67
2022/01/11 02:08:07;;;;;;;158.98;54.13;;;;;;;;;;5037847;28;20045;-67
2022/01/11 02:10:37;;;;;;;193.27;63.75;;;;;;;;;;5036673;28;20026;-67
2022/01/11 02:13:05;;;;;;;174.50;55.35;;;;;;;;;;5038051;28;20021;-67
2022/01/11 02:15:33;;;;;;;158.75;53.42;;;;;;;;;;5037535;28;20021;-67
2022/01/11 02:18:18;;;;;;;156.77;51.47;;;;;;;;;;5037743;28;20123;-68
2022/01/11 02:20:46;;;;;;;156.63;50.78;;;;;;;;;;5036385;28;20381;-66
2022/01/11 02:23:14;;;;;;;167.13;55.47;;;;;;;;;;5036209;28;20021;-68
2022/01/11 02:25:44;;;;;;;181.70;59.60;;;;;;;;;;5037381;28;20022;-67
2022/01/11 02:28:16;;;;;;;224.25;69.28;;;;;;;;;;5037671;28;20202;-67
2022/01/11 02:30:52;;;;;;;231.15;59.90;;;;;;;;;;5037609;28;20026;-67
2022/01/11 02:33:43;;;;;;;253.88;67.00;;;;;;;;;;5037295;28;20453;-67
2022/01/11 02:36:15;;;;;;;199.40;63.28;;;;;;;;;;5037286;28;20119;-67
2022/01/11 02:38:43;;;;;;;189.50;64.13;;;;;;;;;;5037416;28;20045;-68
2022/01/11 02:41:10;;;;;;;198.18;68.00;;;;;;;;;;5036178;28;20030;-67
2022/01/11 02:43:47;;;;;;;204.20;58.42;;;;;;;;;;5037281;28;20017;-68
2022/01/11 02:46:16;;;;;;;209.35;58.30;;;;;;;;;;5037442;28;20237;-67
2022/01/11 02:48:44;;;;;;;219.70;62.08;;;;;;;;;;4976273;28;20051;-67
2022/01/11 02:51:13;;;;;;;213.40;63.83;;;;;;;;;;4976369;28;20408;-68
2022/01/11 02:53:40;;;;;;;192.77;58.65;;;;;;;;;;4976643;28;20086;-67
2022/01/11 02:56:08;;;;;;;195.55;56.78;;;;;;;;;;4976546;28;20034;-66
2022/01/11 02:58:35;;;;;;;197.55;58.10;;;;;;;;;;4976455;28;20037;-66
2022/01/11 03:01:04;;;;;;;203.98;58.72;;;;;;;;;;4976734;28;20467;-66
2022/01/11 03:03:35;;;;;;;205.00;58.83;;;;;;;;;;4976673;28;20031;-66
2022/01/11 03:06:03;;;;;;;184.85;56.03;;;;;;;;;;4977182;28;20066;-67
2022/01/11 03:08:33;;;;;;;198.40;62.95;;;;;;;;;;4976798;28;20019;-68
2022/01/11 03:11:05;;;;;;;199.98;62.15;;;;;;;;;;4977082;28;20061;-68
2022/01/11 03:13:35;;;;;;;193.90;61.08;;;;;;;;;;4976919;28;20045;-68
2022/01/11 03:16:04;;;;;;;190.27;63.13;;;;;;;;;;4977089;28;20022;-68
2022/01/11 03:18:32;;;;;;;190.68;60.35;;;;;;;;;;4978398;28;20035;-68
2022/01/11 03:21:00;;;;;;;208.10;65.32;;;;;;;;;;4993497;28;20091;-68
2022/01/11 03:23:32;;;;;;;199.93;61.40;;;;;;;;;;4994980;28;20006;-68
2022/01/11 03:26:03;;;;;;;199.85;63.78;;;;;;;;;;5011774;28;20034;-68
2022/01/11 03:28:31;;;;;;;215.38;61.67;;;;;;;;;;5033235;28;20033;-68
2022/01/11 03:30:59;;;;;;;200.05;67.57;;;;;;;;;;5015434;28;20033;-69
2022/01/11 03:33:26;;;;;;;199.05;63.03;;;;;;;;;;4999678;28;20034;-68
2022/01/11 03:35:54;;;;;;;192.07;63.55;;;;;;;;;;5015716;28;20029;-68
2022/01/11 03:38:22;;;;;;;187.77;59.15;;;;;;;;;;5021071;28;20037;-68
2022/01/11 03:40:51;;;;;;;184.90;60.63;;;;;;;;;;5037784;28;20025;-68
2022/01/11 03:43:22;;;;;;;191.70;63.47;;;;;;;;;;5037532;28;20033;-68
2022/01/11 03:45:50;;;;;;;204.95;61.67;;;;;;;;;;5037075;28;20111;-68
2022/01/11 03:48:19;;;;;;;232.52;64.88;;;;;;;;;;5043063;28;20069;-68
2022/01/11 03:50:53;;;;;;;219.70;61.10;;;;;;;;;;5037723;28;20470;-68
2022/01/11 03:53:21;;;;;;;234.88;68.88;;;;;;;;;;5036732;28;20330;-69
2022/01/11 03:58:35;;;;;;;216.65;64.18;;;;;;;;;;5036345;28;20076;-69
2022/01/11 04:01:04;;;;;;;228.95;66.35;;;;;;;;;;5036164;28;20103;-68
2022/01/11 04:03:32;;;;;;;224.05;66.38;;;;;;;;;;5034725;28;20113;-69
2022/01/11 04:06:02;;;;;;;255.32;69.43;;;;;;;;;;5035955;28;20029;-68
2022/01/11 04:08:30;;;;;;;234.45;67.70;;;;;;;;;;5035871;28;20021;-68
2022/01/11 04:10:57;;;;;;;220.63;60.83;;;;;;;;;;5034897;28;20025;-68
2022/01/11 04:13:25;;;;;;;224.55;62.63;;;;;;;;;;5034657;28;20037;-68
2022/01/11 04:15:52;;;;;;;214.77;60.75;;;;;;;;;;5035869;28;20030;-69
2022/01/11 04:18:20;;;;;;;212.38;61.28;;;;;;;;;;5035603;28;20028;-69
2022/01/11 04:20:47;;;;;;;227.55;65.80;;;;;;;;;;5034236;28;20116;-67
2022/01/11 04:23:16;;;;;;;220.00;62.17;;;;;;;;;;5035408;28;20045;-68
2022/01/11 04:25:44;;;;;;;216.75;65.53;;;;;;;;;;5034208;28;20056;-68
2022/01/11 04:28:12;;;;;;;209.85;62.95;;;;;;;;;;5032912;28;20140;-68
2022/01/11 04:30:39;;;;;;;195.43;61.40;;;;;;;;;;5040688;28;20032;-68
2022/01/11 04:33:07;;;;;;;216.35;66.55;;;;;;;;;;5051537;28;20088;-68
2022/01/11 04:35:37;;;;;;;201.55;64.72;;;;;;;;;;5053803;28;20432;-68
2022/01/11 04:38:05;;;;;;;214.40;61.42;;;;;;;;;;5052469;28;20033;-68
2022/01/11 04:40:35;;;;;;;222.05;63.25;;;;;;;;;;5051245;28;20087;-68
2022/01/11 04:43:02;;;;;;;203.68;60.30;;;;;;;;;;5038143;28;20099;-70
2022/01/11 04:45:30;;;;;;;197.57;61.53;;;;;;;;;;5031446;28;20053;-69
2022/01/11 04:47:58;;;;;;;221.65;75.40;;;;;;;;;;5038361;28;20021;-68
2022/01/11 04:50:26;;;;;;;206.18;65.32;;;;;;;;;;5038873;28;20091;-69
2022/01/11 04:52:52;;;;;;;193.23;61.88;;;;;;;;;;5041661;28;20029;-68
2022/01/11 04:55:19;;;;;;;194.77;63.85;;;;;;;;;;5040251;28;20056;-68
2022/01/11 04:57:47;;;;;;;194.82;63.25;;;;;;;;;;5039699;28;20021;-69
2022/01/11 05:00:16;;;;;;;196.32;63.10;;;;;;;;;;5040039;28;20021;-68
2022/01/11 05:02:44;;;;;;;209.52;62.95;;;;;;;;;;5041397;28;20299;-68
2022/01/11 05:05:12;;;;;;;201.88;67.03;;;;;;;;;;5040539;28;20103;-68
2022/01/11 05:07:39;;;;;;;203.70;64.60;;;;;;;;;;5041069;28;20032;-69
2022/01/11 05:10:07;;;;;;;178.02;58.72;;;;;;;;;;5039842;28;20022;-69
2022/01/11 05:12:34;;;;;;;186.20;59.58;;;;;;;;;;5041753;28;20017;-68
2022/01/11 05:15:02;;;;;;;213.57;66.35;;;;;;;;;;5041391;28;20018;-68
2022/01/11 05:17:30;;;;;;;176.07;62.60;;;;;;;;;;5041751;28;20066;-68
2022/01/11 05:19:57;;;;;;;180.85;58.38;;;;;;;;;;5041772;28;20021;-68
2022/01/11 05:22:25;;;;;;;179.98;57.58;;;;;;;;;;5040192;28;20419;-68
2022/01/11 05:24:53;;;;;;;203.98;63.70;;;;;;;;;;5040353;28;20029;-68
2022/01/11 05:27:20;;;;;;;201.77;62.67;;;;;;;;;;5020407;28;20080;-68
2022/01/11 05:29:48;;;;;;;194.68;64.10;;;;;;;;;;5021586;28;20022;-68
2022/01/11 05:32:16;;;;;;;202.57;61.75;;;;;;;;;;5021723;28;20030;-68
2022/01/11 05:34:46;;;;;;;200.32;62.78;;;;;;;;;;5034442;28;20029;-67
2022/01/11 05:37:14;;;;;;;232.32;70.18;;;;;;;;;;5039784;28;20025;-67
2022/01/11 05:39:42;;;;;;;202.77;63.80;;;;;;;;;;5041430;28;20025;-67
2022/01/11 05:42:09;;;;;;;191.38;60.05;;;;;;;;;;5035344;28;20033;-67
2022/01/11 05:44:37;;;;;;;193.63;61.83;;;;;;;;;;5038079;28;20414;-67
2022/01/11 05:47:05;;;;;;;225.43;75.10;;;;;;;;;;5032252;28;20029;-67
2022/01/11 05:49:35;;;;;;;215.60;67.22;;;;;;;;;;5030722;28;20025;-67
2022/01/11 05:52:03;;;;;;;205.55;67.75;;;;;;;;;;5025210;28;20132;-67
2022/01/11 05:54:31;;;;;;;193.07;61.90;;;;;;;;;;5021146;28;20022;-67
2022/01/11 05:56:59;;;;;;;209.20;65.80;;;;;;;;;;5020813;28;20049;-67
2022/01/11 05:59:26;;;;;;;257.38;73.50;;;;;;;;;;5017615;28;20080;-69
2022/01/11 06:01:54;;;;;;;263.67;87.95;;;;;;;;;;5018263;28;20033;-70
2022/01/11 06:04:23;;;;;;;249.10;72.65;;;;;;;;;;5018271;28;20026;-68
2022/01/11 06:06:52;;;;;;;230.85;71.38;;;;;;;;;;5023474;28;20113;-68
2022/01/11 06:09:19;;;;;;;249.93;73.07;;;;;;;;;;5037148;28;20071;-67
2022/01/11 06:11:56;;;;;;;266.00;75.25;;;;;;;;;;5037363;28;20116;-69
2022/01/11 06:14:24;;;;;;;258.08;74.68;;;;;;;;;;5026889;28;20033;-68
2022/01/11 06:16:52;;;;;;;261.38;71.40;;;;;;;;;;5017690;28;20415;-69
2022/01/11 06:19:19;;;;;;;244.10;71.80;;;;;;;;;;5022758;28;20111;-69
2022/01/11 06:21:46;;;;;;;218.68;64.18;;;;;;;;;;5034696;28;20033;-69
2022/01/11 06:24:14;;;;;;;232.85;67.65;;;;;;;;;;5037587;28;20028;-69
2022/01/11 06:26:42;;;;;;;222.10;64.55;;;;;;;;;;5038347;28;20021;-69
2022/01/11 06:29:10;;;;;;;236.55;69.53;;;;;;;;;;5037186;28;20022;-69
2022/01/11 06:31:38;;;;;;;220.43;67.25;;;;;;;;;;5037623;28;20033;-68
2022/01/11 06:34:05;;;;;;;216.32;69.80;;;;;;;;;;5038369;28;20033;-69
2022/01/11 06:36:33;;;;;;;248.45;71.30;;;;;;;;;;5043019;28;20026;-66
2022/01/11 06:39:02;;;;;;;225.32;72.15;;;;;;;;;;5018499;28;20323;-68
2022/01/11 06:41:29;;;;;;;221.00;71.70;;;;;;;;;;5019786;28;20034;-67
2022/01/11 06:43:59;;;;;;;238.88;89.78;;;;;;;;;;5019385;28;20037;-68
2022/01/11 06:46:26;;;;;;;212.60;69.68;;;;;;;;;;5018312;28;20033;-69
2022/01/11 06:48:54;;;;;;;212.60;73.88;;;;;;;;;;5019721;28;20033;-68
2022/01/11 06:51:20;;;;;;;227.07;70.30;;;;;;;;;;5019042;28;20443;-67
2022/01/11 06:53:48;;;;;;;209.15;67.75;;;;;;;;;;5018694;28;20041;-69
2022/01/11 06:56:17;;;;;;;224.00;75.97;;;;;;;;;;5019165;28;20050;-67
2022/01/11 06:58:45;;;;;;;225.02;72.22;;;;;;;;;;5017769;28;20029;-68
2022/01/11 07:01:13;;;;;;;227.88;72.32;;;;;;;;;;5018782;28;20081;-68
2022/01/11 07:03:42;;;;;;;229.65;75.88;;;;;;;;;;5019471;28;20434;-68
2022/01/11 07:06:10;;;;;;;206.00;71.28;;;;;;;;;;5018830;28;20081;-68
2022/01/11 07:08:37;;;;;;;221.23;76.20;;;;;;;;;;5018648;28;20018;-67
2022/01/11 07:11:11;;;;;;;216.75;72.50;;;;;;;;;;5018321;28;20349;-68
2022/01/11 07:14:03;;;;;;;209.55;71.00;;;;;;;;;;5018546;28;20068;-68
2022/01/11 07:16:30;;;;;;;207.15;73.43;;;;;;;;;;5025774;28;20113;-67
2022/01/11 07:18:58;;;;;;;205.75;71.60;;;;;;;;;;5027375;28;20071;-68
2022/01/11 07:21:25;;;;;;;210.55;75.45;;;;;;;;;;5027868;28;20029;-68
2022/01/11 07:23:53;;;;;;;207.73;74.90;;;;;;;;;;5029422;28;20013;-68
2022/01/11 07:26:21;;;;;;;217.43;76.13;;;;;;;;;;5030965;28;20411;-68
2022/01/11 07:28:48;;;;;;;217.68;73.60;;;;;;;;;;5026943;28;20033;-67
2022/01/11 07:31:16;;;;;;;221.93;77.10;;;;;;;;;;5026256;28;20104;-68
2022/01/11 07:33:44;;;;;;;206.85;73.15;;;;;;;;;;5028031;28;20132;-67
2022/01/11 07:36:13;;;;;;;233.45;77.60;;;;;;;;;;5026443;28;20022;-66
2022/01/11 07:38:40;;;;;;;248.60;83.88;;;;;;;;;;5027953;28;20022;-67
2022/01/11 07:41:08;;;;;;;242.73;78.22;;;;;;;;;;5024935;28;20037;-68
2022/01/11 07:43:35;;;;;;;233.98;81.15;;;;;;;;;;5024122;28;20045;-66
2022/01/11 07:46:03;;;;;;;220.07;77.13;;;;;;;;;;5023726;28;20053;-67
2022/01/11 07:48:30;;;;;;;237.60;81.55;;;;;;;;;;5026212;28;20037;-68
2022/01/11 07:50:57;;;;;;;249.32;79.70;;;;;;;;;;5021956;28;20046;-69
2022/01/11 07:53:24;;;;;;;233.75;77.55;;;;;;;;;;5024263;28;20112;-68
2022/01/11 07:55:51;;;;;;;231.25;77.68;;;;;;;;;;5026261;28;20033;-68
2022/01/11 07:58:19;;;;;;;248.43;83.45;;;;;;;;;;5024469;28;20033;-68
2022/01/11 08:00:47;;;;;;;230.60;79.15;;;;;;;;;;5029792;28;20025;-68
2022/01/11 08:03:15;;;;;;;238.23;79.45;;;;;;;;;;5035346;28;20045;-68
2022/01/11 08:05:42;;;;;;;245.50;81.93;;;;;;;;;;5034040;28;20087;-69
2022/01/11 08:08:10;;;;;;;241.20;79.72;;;;;;;;;;5049801;28;20029;-69
2022/01/11 08:10:38;;;;;;;238.27;85.32;;;;;;;;;;5020610;28;20034;-68
2022/01/11 08:13:08;;;;;;;230.25;80.82;;;;;;;;;;5032318;28;20034;-68
2022/01/11 08:15:36;;;;;;;247.52;86.63;;;;;;;;;;5024372;28;20479;-69
2022/01/11 08:18:03;;;;;;;229.65;81.97;;;;;;;;;;5023443;28;20426;-68
2022/01/11 08:20:31;;;;;;;255.93;83.47;;;;;;;;;;5029029;28;20026;-66
2022/01/11 08:22:59;;;;;;;242.52;84.20;;;;;;;;;;5032794;28;20025;-69
2022/01/11 08:25:27;;;;;;;243.13;84.07;;;;;;;;;;5027439;28;20121;-69
2022/01/11 08:27:54;;;;;;;252.23;85.93;;;;;;;;;;5025258;28;20041;-67
2022/01/11 08:30:22;;;;;;;250.57;85.85;;;;;;;;;;5028162;28;20017;-68
2022/01/11 08:32:49;;;;;;;254.48;87.03;;;;;;;;;;5034760;28;20099;-67
2022/01/11 08:35:17;;;;;;;257.40;86.90;;;;;;;;;;5035190;28;20445;-68
2022/01/11 08:37:45;;;;;;;258.52;84.07;;;;;;;;;;5028542;28;20030;-68
2022/01/11 08:40:13;;;;;;;265.40;84.82;;;;;;;;;;5023236;28;20033;-68
2022/01/11 08:42:40;;;;;;;252.80;87.38;;;;;;;;;;5020184;28;20321;-67
2022/01/11 08:45:09;;;;;;;278.08;92.07;;;;;;;;;;5021629;28;20828;-65
2022/01/11 08:47:36;;;;;;;279.92;87.78;;;;;;;;;;5023381;28;20026;-66
2022/01/11 08:50:05;;;;;;;264.55;88.38;;;;;;;;;;5023177;28;20548;-68
2022/01/11 08:52:32;;;;;;;258.17;87.18;;;;;;;;;;5025132;28;20017;-66
2022/01/11 08:55:00;;;;;;;257.83;86.93;;;;;;;;;;5022868;28;20065;-68
2022/01/11 08:57:27;;;;;;;258.77;86.45;;;;;;;;;;5014533;28;20431;-68
2022/01/11 08:59:55;;;;;;;259.63;88.10;;;;;;;;;;5030408;28;20048;-69
2022/01/11 09:02:23;;;;;;;258.73;87.25;;;;;;;;;;5034929;28;20323;-69
2022/01/11 09:04:53;;;;;;;256.17;85.78;;;;;;;;;;5034804;28;20025;-69
2022/01/11 09:07:21;;;;;;;263.83;88.00;;;;;;;;;;5027608;28;20026;-68
2022/01/11 09:09:48;;;;;;;262.77;88.68;;;;;;;;;;5034369;28;20022;-68
2022/01/11 09:12:19;;;;;;;255.95;89.95;;;;;;;;;;5028991;28;20025;-69
2022/01/11 09:14:46;;;;;;;256.92;88.78;;;;;;;;;;5024718;28;20033;-68
2022/01/11 09:17:14;;;;;;;262.42;90.50;;;;;;;;;;5024650;28;20100;-67
2022/01/11 09:19:41;;;;;;;268.60;88.25;;;;;;;;;;5033358;28;20029;-68
2022/01/11 09:22:12;;;;;;;241.45;84.72;;;;;;;;;;5024707;28;20338;-69
2022/01/11 09:24:40;;;;;;;265.95;89.50;;;;;;;;;;5025826;28;20025;-68
2022/01/11 09:27:07;;;;;;;271.35;89.45;;;;;;;;;;5033857;28;20342;-67
2022/01/11 09:29:38;;;;;;;259.08;94.13;;;;;;;;;;5026365;28;20431;-66
2022/01/11 09:32:12;;;;;;;271.98;91.88;;;;;;;;;;5033861;28;20504;-67
2022/01/11 09:34:40;;;;;;;259.00;90.25;;;;;;;;;;5025885;28;20033;-68
2022/01/11 09:37:08;;;;;;;302.70;104.53;;;;;;;;;;5027361;28;20030;-67
2022/01/11 09:39:36;;;;;;;301.50;107.55;;;;;;;;;;5027655;28;20091;-67
2022/01/11 09:42:05;;;;;;;271.88;91.35;;;;;;;;;;5028588;28;20029;-68
2022/01/11 09:44:34;;;;;;;265.15;91.50;;;;;;;;;;5027673;28;20022;-68
2022/01/11 09:47:05;;;;;;;347.02;106.38;;;;;;;;;;5027024;28;20021;-67
2022/01/11 09:49:32;;;;;;;341.27;107.80;;;;;;;;;;5028019;28;20415;-66
2022/01/11 09:52:02;;;;;;;291.42;95.50;;;;;;;;;;5026214;28;20630;-69
2022/01/11 09:54:29;;;;;;;297.33;99.05;;;;;;;;;;5026252;28;20028;-68
2022/01/11 09:56:57;;;;;;;304.85;101.82;;;;;;;;;;5024672;28;20025;-68
2022/01/11 09:59:24;;;;;;;250.48;85.70;;;;;;;;;;5025236;28;20079;-68
2022/01/11 10:01:52;;;;;;;244.00;89.07;;;;;;;;;;5023633;28;20120;-68
2022/01/11 10:04:24;;;;;;;254.90;89.50;;;;;;;;;;5024689;28;20060;-70
2022/01/11 10:06:56;;;;;;;284.95;99.15;;;;;;;;;;5023461;28;20030;-67
2022/01/11 10:09:24;;;;;;;281.25;99.35;;;;;;;;;;5030415;28;20052;-66
2022/01/11 10:11:54;;;;;;;259.77;93.43;;;;;;;;;;5027492;28;20025;-67
2022/01/11 10:14:33;;;;;;;248.13;90.65;;;;;;;;;;5025670;28;20393;-67
2022/01/11 10:17:12;;;;;;;256.30;92.38;;;;;;;;;;5024658;28;20116;-66
2022/01/11 10:19:41;;;;;;;246.00;91.93;;;;;;;;;;5026611;28;20021;-67
2022/01/11 10:22:10;;;;;;;256.70;92.22;;;;;;;;;;5027895;28;20025;-68
2022/01/11 10:24:42;;;;;;;263.77;91.35;;;;;;;;;;5035112;28;20029;-68
2022/01/11 10:27:22;;;;;;;231.23;85.22;;;;;;;;;;5037761;28;20418;-68
2022/01/11 10:30:03;;;;;;;243.23;83.78;;;;;;;;;;5037641;28;20033;-69
2022/01/11 10:32:35;;;;;;;235.27;87.85;;;;;;;;;;5036716;28;20033;-68
2022/01/11 10:35:08;;;;;;;241.52;88.20;;;;;;;;;;5037540;28;20414;-68
2022/01/11 10:37:37;;;;;;;248.35;95.68;;;;;;;;;;5037635;28;20108;-68
2022/01/11 10:40:12;;;;;;;230.80;85.70;;;;;;;;;;5037537;28;20335;-68
2022/01/11 10:42:49;;;;;;;262.15;103.30;;;;;;;;;;5036269;28;20030;-68
2022/01/11 10:45:18;;;;;;;267.05;99.63;;;;;;;;;;5036643;28;20025;-69
2022/01/11 10:47:50;;;;;;;271.67;108.22;;;;;;;;;;5037457;28;20026;-67
2022/01/11 10:50:27;;;;;;;284.80;113.47;;;;;;;;;;5036185;28;20055;-67
2022/01/11 10:52:57;;;;;;;259.58;88.95;;;;;;;;;;5037458;28;20360;-68
2022/01/11 10:55:27;;;;;;;275.88;100.32;;;;;;;;;;5037340;28;20045;-68
2022/01/11 10:57:56;;;;;;;295.40;109.55;;;;;;;;;;5037339;28;20026;-68
2022/01/11 11:00:28;;;;;;;319.48;113.22;;;;;;;;;;5037158;28;20033;-68
2022/01/11 11:02:57;;;;;;;337.58;125.95;;;;;;;;;;5037371;28;20021;-68
2022/01/11 11:05:35;;;;;;;378.55;147.93;;;;;;;;;;5037150;28;20354;-67
2022/01/11 11:08:07;;;;;;;330.83;122.50;;;;;;;;;;5036068;28;20029;-68
2022/01/11 11:10:54;;;;;;;290.10;105.50;;;;;;;;;;5037340;28;20018;-68
2022/01/11 11:13:23;;;;;;;317.40;116.63;;;;;;;;;;5037228;28;20092;-68
2022/01/11 11:15:52;;;;;;;291.23;107.65;;;;;;;;;;5035715;28;20366;-68
2022/01/11 11:18:30;;;;;;;278.00;101.85;;;;;;;;;;5036959;28;20096;-67
2022/01/11 11:21:11;;;;;;;274.58;97.85;;;;;;;;;;5036810;28;20026;-66
2022/01/11 11:23:41;;;;;;;293.23;99.20;;;;;;;;;;5036978;28;20036;-67
2022/01/11 11:26:09;;;;;;;307.17;108.65;;;;;;;;;;5037060;28;20025;-67
2022/01/11 11:28:38;;;;;;;341.55;119.85;;;;;;;;;;5036997;28;20025;-67
2022/01/11 11:31:06;;;;;;;348.73;114.70;;;;;;;;;;5037090;28;20029;-68
2022/01/11 11:33:35;;;;;;;470.50;145.40;;;;;;;;;;5036928;28;20021;-67
2022/01/11 11:36:03;;;;;;;477.00;146.55;;;;;;;;;;5035869;28;20171;-68
2022/01/11 11:38:33;;;;;;;537.15;169.02;;;;;;;;;;5036936;28;20025;-65
2022/01/11 11:41:03;;;;;;;421.55;140.35;;;;;;;;;;5036285;28;20092;-66
2022/01/11 11:43:33;;;;;;;461.77;150.38;;;;;;;;;;5036613;28;20112;-65
2022/01/11 11:46:00;;;;;;;431.23;139.60;;;;;;;;;;5036581;28;20017;-66
2022/01/11 11:48:28;;;;;;;447.20;138.73;;;;;;;;;;5036642;28;20056;-69
2022/01/11 11:50:59;;;;;;;534.05;173.10;;;;;;;;;;5035447;28;20099;-66
2022/01/11 11:53:34;;;;;;;472.25;150.00;;;;;;;;;;5036588;28;20033;-68
2022/01/11 11:56:21;;;;;;;546.25;177.95;;;;;;;;;;5035848;28;20026;-67
2022/01/11 11:58:55;;;;;;;559.85;176.82;;;;;;;;;;5036280;28;20029;-65
2022/01/11 12:01:44;;;;;;;439.67;151.02;;;;;;;;;;5036213;28;20033;-67
2022/01/11 12:04:34;;;;;;;329.13;113.25;;;;;;;;;;5035148;28;20024;-67
2022/01/11 12:07:21;;;;;;;292.40;107.30;;;;;;;;;;5034661;28;20049;-66
2022/01/11 12:09:51;;;;;;;443.13;141.18;;;;;;;;;;5034329;28;20072;-65
2022/01/11 12:12:39;;;;;;;310.30;101.63;;;;;;;;;;5036009;28;20387;-66
2022/01/11 12:15:35;;;;;;;346.02;109.15;;;;;;;;;;4975187;28;20037;-67
2022/01/11 12:18:04;;;;;;;335.95;112.53;;;;;;;;;;4937040;29;20071;-66
2022/01/11 12:20:48;;;;;;;310.70;106.93;;;;;;;;;;4921006;29;20091;-67
2022/01/11 12:23:23;;;;;;;308.27;102.75;;;;;;;;;;4936937;29;20083;-67
2022/01/11 12:25:55;;;;;;;313.33;103.30;;;;;;;;;;4920992;29;20038;-66
2022/01/11 12:28:24;;;;;;;328.42;112.18;;;;;;;;;;4936911;29;20129;-68
2022/01/11 12:30:51;;;;;;;397.00;136.32;;;;;;;;;;4920919;29;20036;-66
2022/01/11 12:33:22;;;;;;;340.33;110.75;;;;;;;;;;4936634;29;20050;-65
2022/01/11 12:35:57;;;;;;;350.83;114.93;;;;;;;;;;4936666;29;20441;-66
2022/01/11 12:38:27;;;;;;;295.90;102.80;;;;;;;;;;4920748;29;20168;-65
2022/01/11 12:40:55;;;;;;;283.38;97.53;;;;;;;;;;4936945;29;20044;-66
2022/01/11 12:43:42;;;;;;;285.45;99.93;;;;;;;;;;4936656;29;20031;-65
2022/01/11 12:46:11;;;;;;;309.67;102.82;;;;;;;;;;4936760;29;20069;-67
2022/01/11 12:48:48;;;;;;;292.55;101.50;;;;;;;;;;4936626;29;20047;-65
2022/01/11 12:51:32;;;;;;;290.27;95.03;;;;;;;;;;4943884;28;20135;-66
2022/01/11 12:54:17;;;;;;;268.90;90.35;;;;;;;;;;5007803;28;20171;-66
2022/01/11 12:56:46;;;;;;;277.60;99.68;;;;;;;;;;5034752;28;20025;-65
2022/01/11 12:59:14;;;;;;;299.38;106.00;;;;;;;;;;5034889;28;20155;-66
2022/01/11 13:01:42;;;;;;;269.20;97.20;;;;;;;;;;5035739;28;20034;-66
2022/01/11 13:04:10;;;;;;;266.90;98.55;;;;;;;;;;5035957;28;20078;-66
2022/01/11 13:06:38;;;;;;;249.32;98.47;;;;;;;;;;5035891;28;20107;-67
2022/01/11 13:09:08;;;;;;;245.90;94.18;;;;;;;;;;5037337;28;20030;-67
2022/01/11 13:11:36;;;;;;;238.13;90.15;;;;;;;;;;5038803;28;20029;-65
2022/01/11 13:14:30;;;;;;;281.65;101.70;;;;;;;;;;5039768;28;20033;-67
2022/01/11 13:17:04;;;;;;;268.83;100.18;;;;;;;;;;5039447;28;20033;-68
2022/01/11 13:19:33;;;;;;;259.08;95.75;;;;;;;;;;5038176;28;20116;-67
2022/01/11 13:22:07;;;;;;;234.45;83.57;;;;;;;;;;5039275;28;20078;-67
2022/01/11 13:24:38;;;;;;;215.98;80.03;;;;;;;;;;5038080;28;20017;-68
2022/01/11 13:27:11;;;;;;;226.18;81.70;;;;;;;;;;5039402;28;20021;-68
2022/01/11 13:29:39;;;;;;;239.15;84.22;;;;;;;;;;5039365;28;20167;-67
2022/01/11 13:32:06;;;;;;;229.85;84.82;;;;;;;;;;5038069;28;20426;-67
2022/01/11 13:34:37;;;;;;;244.80;92.03;;;;;;;;;;5039092;28;20036;-67
2022/01/11 13:37:05;;;;;;;232.00;88.80;;;;;;;;;;5038931;28;20029;-68
2022/01/11 13:39:36;;;;;;;242.90;90.82;;;;;;;;;;5039312;28;20104;-66
2022/01/11 13:42:10;;;;;;;232.43;85.20;;;;;;;;;;5037641;28;20034;-67
2022/01/11 13:44:39;;;;;;;224.82;83.55;;;;;;;;;;5038872;28;20030;-69
2022/01/11 13:47:10;;;;;;;221.68;82.30;;;;;;;;;;5038838;28;20025;-68
2022/01/11 13:49:39;;;;;;;218.82;79.18;;;;;;;;;;5038788;28;20466;-66
2022/01/11 13:52:16;;;;;;;202.60;76.55;;;;;;;;;;5038451;28;20056;-65
2022/01/11 13:54:47;;;;;;;223.95;80.03;;;;;;;;;;5038870;28;20028;-65
2022/01/11 13:57:21;;;;;;;211.75;79.05;;;;;;;;;;5038656;28;20026;-66
2022/01/11 14:00:09;;;;;;;226.35;81.25;;;;;;;;;;5038746;28;20033;-63
2022/01/11 14:02:38;;;;;;;231.32;84.30;;;;;;;;;;5027891;28;20518;-66
2022/01/11 14:05:14;;;;;;;228.60;85.35;;;;;;;;;;5038644;28;20327;-67
2022/01/11 14:07:51;;;;;;;218.93;82.55;;;;;;;;;;5038320;28;20033;-65
2022/01/11 14:10:20;;;;;;;222.02;83.38;;;;;;;;;;5038484;28;20022;-66
2022/01/11 14:12:54;;;;;;;216.13;81.55;;;;;;;;;;5038309;28;20032;-66
2022/01/11 14:15:25;;;;;;;223.70;84.40;;;;;;;;;;5038514;28;20292;-65
2022/01/11 14:17:53;;;;;;;230.30;84.88;;;;;;;;;;5038309;28;20024;-65
2022/01/11 14:20:26;;;;;;;221.48;80.20;;;;;;;;;;5035694;28;20075;-65
2022/01/11 14:22:56;;;;;;;226.70;87.15;;;;;;;;;;5038157;28;20032;-66
2022/01/11 14:25:29;;;;;;;236.77;89.20;;;;;;;;;;5037401;28;20323;-66
2022/01/11 14:28:04;;;;;;;215.63;81.15;;;;;;;;;;5038138;28;20025;-65